sensor_id;sensor_type;location;lat;lon;timestamp;pressure;altitude;pressure_sealevel;temperature;humidity
71857;BME280;63344;46.980;28.882;2023-05-18T00:02:11;100731.38;;;14.80;67.01
71857;BME280;63344;46.980;28.882;2023-05-18T00:04:42;100736.28;;;14.71;66.79
71857;BME280;63344;46.980;28.882;2023-05-18T00:07:10;100737.38;;;14.67;66.96
71857;BME280;63344;46.980;28.882;2023-05-18T00:09:37;100736.78;;;14.62;67.22
71857;BME280;63344;46.980;28.882;2023-05-18T00:12:04;100734.44;;;14.56;67.41
71857;BME280;63344;46.980;28.882;2023-05-18T00:14:32;100724.97;;;14.49;67.36
71857;BME280;63344;46.980;28.882;2023-05-18T00:16:59;100729.53;;;14.47;67.34
71857;BME280;63344;46.980;28.882;2023-05-18T00:19:29;100728.13;;;14.40;67.86
71857;BME280;63344;46.980;28.882;2023-05-18T00:21:57;100722.97;;;14.37;68.25
71857;BME280;63344;46.980;28.882;2023-05-18T00:24:25;100721.47;;;14.31;68.28
71857;BME280;63344;46.980;28.882;2023-05-18T00:26:52;100722.50;;;14.28;68.35
71857;BME280;63344;46.980;28.882;2023-05-18T00:29:20;100716.53;;;14.23;68.39
71857;BME280;63344;46.980;28.882;2023-05-18T00:31:47;100714.19;;;14.17;68.69
71857;BME280;63344;46.980;28.882;2023-05-18T00:34:15;100714.59;;;14.09;68.86
71857;BME280;63344;46.980;28.882;2023-05-18T00:36:42;100715.75;;;14.04;69.19
71857;BME280;63344;46.980;28.882;2023-05-18T00:39:09;100718.84;;;13.96;69.51
71857;BME280;63344;46.980;28.882;2023-05-18T00:41:37;100719.25;;;13.88;70.00
71857;BME280;63344;46.980;28.882;2023-05-18T00:44:04;100713.44;;;13.80;69.99
71857;BME280;63344;46.980;28.882;2023-05-18T00:46:33;100718.91;;;13.77;70.27
71857;BME280;63344;46.980;28.882;2023-05-18T00:49:00;100718.13;;;13.75;70.43
71857;BME280;63344;46.980;28.882;2023-05-18T00:51:28;100720.06;;;13.71;70.54
71857;BME280;63344;46.980;28.882;2023-05-18T00:53:58;100722.03;;;13.68;70.29
71857;BME280;63344;46.980;28.882;2023-05-18T00:56:27;100719.59;;;13.63;70.67
71857;BME280;63344;46.980;28.882;2023-05-18T00:58:55;100717.09;;;13.60;70.84
71857;BME280;63344;46.980;28.882;2023-05-18T01:01:31;100718.25;;;13.54;70.59
71857;BME280;63344;46.980;28.882;2023-05-18T01:04:02;100716.69;;;13.50;71.11
71857;BME280;63344;46.980;28.882;2023-05-18T01:06:31;100715.03;;;13.48;71.04
71857;BME280;63344;46.980;28.882;2023-05-18T01:09:05;100721.44;;;13.44;71.47
71857;BME280;63344;46.980;28.882;2023-05-18T01:20:08;100718.88;;;13.23;72.00
71857;BME280;63344;46.980;28.882;2023-05-18T01:25:45;100719.38;;;13.12;72.02
71857;BME280;63344;46.980;28.882;2023-05-18T01:28:17;100720.47;;;13.08;72.36
71857;BME280;63344;46.980;28.882;2023-05-18T01:30:46;100722.34;;;13.06;72.09
71857;BME280;63344;46.980;28.882;2023-05-18T01:33:14;100726.09;;;13.02;72.56
71857;BME280;63344;46.980;28.882;2023-05-18T01:35:41;100730.72;;;12.99;72.80
71857;BME280;63344;46.980;28.882;2023-05-18T01:38:20;100725.50;;;12.95;73.10
71857;BME280;63344;46.980;28.882;2023-05-18T01:41:17;100731.06;;;12.91;73.08
71857;BME280;63344;46.980;28.882;2023-05-18T01:49:05;100735.91;;;12.83;73.44
71857;BME280;63344;46.980;28.882;2023-05-18T01:51:38;100737.03;;;12.77;73.77
71857;BME280;63344;46.980;28.882;2023-05-18T01:54:08;100743.38;;;12.74;73.76
71857;BME280;63344;46.980;28.882;2023-05-18T01:56:37;100744.53;;;12.69;73.99
71857;BME280;63344;46.980;28.882;2023-05-18T01:59:07;100740.22;;;12.66;73.72
71857;BME280;63344;46.980;28.882;2023-05-18T02:01:34;100752.72;;;12.64;74.41
71857;BME280;63344;46.980;28.882;2023-05-18T02:04:06;100746.63;;;12.62;74.75
71857;BME280;63344;46.980;28.882;2023-05-18T02:06:34;100750.34;;;12.58;74.52
71857;BME280;63344;46.980;28.882;2023-05-18T02:09:03;100745.22;;;12.53;74.58
71857;BME280;63344;46.980;28.882;2023-05-18T02:11:31;100753.25;;;12.52;74.58
71857;BME280;63344;46.980;28.882;2023-05-18T02:13:58;100757.94;;;12.47;75.84
71857;BME280;63344;46.980;28.882;2023-05-18T02:16:27;100760.72;;;12.44;75.90
71857;BME280;63344;46.980;28.882;2023-05-18T02:18:54;100761.69;;;12.43;75.94
71857;BME280;63344;46.980;28.882;2023-05-18T02:21:22;100759.94;;;12.42;76.06
71857;BME280;63344;46.980;28.882;2023-05-18T02:23:51;100760.09;;;12.39;76.71
71857;BME280;63344;46.980;28.882;2023-05-18T02:26:19;100750.34;;;12.38;77.16
71857;BME280;63344;46.980;28.882;2023-05-18T02:28:46;100760.22;;;12.35;77.79
71857;BME280;63344;46.980;28.882;2023-05-18T02:31:14;100760.22;;;12.35;77.84
71857;BME280;63344;46.980;28.882;2023-05-18T02:33:41;100754.09;;;12.33;78.27
71857;BME280;63344;46.980;28.882;2023-05-18T02:36:12;100753.28;;;12.31;78.40
71857;BME280;63344;46.980;28.882;2023-05-18T02:38:40;100757.69;;;12.32;78.67
71857;BME280;63344;46.980;28.882;2023-05-18T02:41:09;100751.41;;;12.33;79.09
71857;BME280;63344;46.980;28.882;2023-05-18T02:43:36;100753.00;;;12.38;79.23
71857;BME280;63344;46.980;28.882;2023-05-18T02:46:04;100756.34;;;12.43;79.13
71857;BME280;63344;46.980;28.882;2023-05-18T02:48:31;100757.72;;;12.51;79.39
71857;BME280;63344;46.980;28.882;2023-05-18T02:50:58;100752.06;;;12.59;79.51
71857;BME280;63344;46.980;28.882;2023-05-18T02:53:25;100762.16;;;12.71;79.52
71857;BME280;63344;46.980;28.882;2023-05-18T02:55:54;100755.56;;;12.80;79.58
71857;BME280;63344;46.980;28.882;2023-05-18T02:58:24;100755.72;;;12.96;80.13
71857;BME280;63344;46.980;28.882;2023-05-18T03:00:52;100755.72;;;13.15;81.00
71857;BME280;63344;46.980;28.882;2023-05-18T03:03:21;100756.53;;;13.36;80.91
71857;BME280;63344;46.980;28.882;2023-05-18T03:05:50;100750.13;;;13.58;81.68
71857;BME280;63344;46.980;28.882;2023-05-18T03:08:19;100754.03;;;13.87;82.19
71857;BME280;63344;46.980;28.882;2023-05-18T03:10:48;100755.22;;;14.16;81.46
71857;BME280;63344;46.980;28.882;2023-05-18T03:13:16;100764.22;;;14.48;80.94
71857;BME280;63344;46.980;28.882;2023-05-18T03:15:43;100762.59;;;14.79;79.92
71857;BME280;63344;46.980;28.882;2023-05-18T03:18:15;100762.72;;;15.09;78.53
71857;BME280;63344;46.980;28.882;2023-05-18T03:20:42;100758.56;;;15.36;77.14
71857;BME280;63344;46.980;28.882;2023-05-18T03:23:12;100764.03;;;15.66;75.89
71857;BME280;63344;46.980;28.882;2023-05-18T03:25:40;100767.31;;;16.01;75.12
71857;BME280;63344;46.980;28.882;2023-05-18T03:28:09;100768.28;;;16.30;73.04
71857;BME280;63344;46.980;28.882;2023-05-18T03:30:37;100765.22;;;16.65;72.87
71857;BME280;63344;46.980;28.882;2023-05-18T03:33:04;100765.19;;;16.96;70.41
71857;BME280;63344;46.980;28.882;2023-05-18T03:35:32;100765.81;;;17.28;69.89
71857;BME280;63344;46.980;28.882;2023-05-18T03:37:59;100774.44;;;17.60;69.92
71857;BME280;63344;46.980;28.882;2023-05-18T03:40:27;100771.38;;;17.94;68.20
71857;BME280;63344;46.980;28.882;2023-05-18T03:42:55;100780.66;;;18.15;68.57
71857;BME280;63344;46.980;28.882;2023-05-18T03:45:22;100779.09;;;18.51;67.42
71857;BME280;63344;46.980;28.882;2023-05-18T03:47:49;100780.31;;;18.85;66.79
71857;BME280;63344;46.980;28.882;2023-05-18T03:50:17;100779.72;;;19.19;65.77
71857;BME280;63344;46.980;28.882;2023-05-18T03:52:44;100778.88;;;19.55;63.41
71857;BME280;63344;46.980;28.882;2023-05-18T03:55:12;100775.28;;;19.92;61.95
71857;BME280;63344;46.980;28.882;2023-05-18T03:57:39;100780.75;;;20.14;58.48
71857;BME280;63344;46.980;28.882;2023-05-18T04:00:07;100780.38;;;20.19;57.43
71857;BME280;63344;46.980;28.882;2023-05-18T04:02:38;100776.28;;;20.37;55.50
71857;BME280;63344;46.980;28.882;2023-05-18T04:05:07;100778.78;;;20.52;54.85
71857;BME280;63344;46.980;28.882;2023-05-18T04:07:36;100774.91;;;20.67;53.95
71857;BME280;63344;46.980;28.882;2023-05-18T04:10:12;100763.00;;;20.69;52.84
71857;BME280;63344;46.980;28.882;2023-05-18T04:12:43;100773.91;;;20.91;53.19
71857;BME280;63344;46.980;28.882;2023-05-18T04:15:11;100779.44;;;21.12;52.13
71857;BME280;63344;46.980;28.882;2023-05-18T04:17:43;100772.81;;;21.16;51.11
71857;BME280;63344;46.980;28.882;2023-05-18T04:20:22;100778.34;;;21.03;50.65
71857;BME280;63344;46.980;28.882;2023-05-18T04:23:06;100773.78;;;21.15;51.06
71857;BME280;63344;46.980;28.882;2023-05-18T04:25:55;100777.09;;;21.41;50.35
71857;BME280;63344;46.980;28.882;2023-05-18T04:28:33;100779.16;;;21.60;49.62
71857;BME280;63344;46.980;28.882;2023-05-18T04:31:13;100774.91;;;21.78;49.69
71857;BME280;63344;46.980;28.882;2023-05-18T04:33:44;100778.53;;;21.88;48.52
71857;BME280;63344;46.980;28.882;2023-05-18T04:36:26;100780.50;;;21.98;48.09
71857;BME280;63344;46.980;28.882;2023-05-18T04:39:08;100793.50;;;22.04;47.73
71857;BME280;63344;46.980;28.882;2023-05-18T04:41:36;100787.84;;;22.07;47.24
71857;BME280;63344;46.980;28.882;2023-05-18T04:44:37;100800.59;;;21.73;47.36
71857;BME280;63344;46.980;28.882;2023-05-18T04:47:06;100795.72;;;21.66;47.87
71857;BME280;63344;46.980;28.882;2023-05-18T04:49:34;100801.91;;;21.90;47.02
71857;BME280;63344;46.980;28.882;2023-05-18T04:52:11;100805.44;;;22.01;46.81
71857;BME280;63344;46.980;28.882;2023-05-18T04:57:58;100797.53;;;22.63;45.41
71857;BME280;63344;46.980;28.882;2023-05-18T05:00:28;100806.13;;;22.78;45.96
71857;BME280;63344;46.980;28.882;2023-05-18T05:02:57;100800.94;;;23.17;45.11
71857;BME280;63344;46.980;28.882;2023-05-18T05:05:25;100802.63;;;23.49;44.04
71857;BME280;63344;46.980;28.882;2023-05-18T05:07:53;100808.72;;;23.41;43.25
71857;BME280;63344;46.980;28.882;2023-05-18T05:10:22;100807.28;;;23.37;42.86
71857;BME280;63344;46.980;28.882;2023-05-18T05:12:49;100807.06;;;23.09;42.95
71857;BME280;63344;46.980;28.882;2023-05-18T05:15:19;100813.78;;;23.24;43.22
71857;BME280;63344;46.980;28.882;2023-05-18T05:17:47;100814.44;;;23.48;42.56
71857;BME280;63344;46.980;28.882;2023-05-18T05:20:15;100816.66;;;23.73;41.83
71857;BME280;63344;46.980;28.882;2023-05-18T05:22:43;100813.09;;;23.73;41.60
71857;BME280;63344;46.980;28.882;2023-05-18T05:25:13;100814.41;;;23.88;41.80
71857;BME280;63344;46.980;28.882;2023-05-18T05:27:41;100817.13;;;24.37;41.73
71857;BME280;63344;46.980;28.882;2023-05-18T05:30:09;100826.38;;;24.83;41.34
71857;BME280;63344;46.980;28.882;2023-05-18T05:32:37;100816.78;;;25.26;41.01
71857;BME280;63344;46.980;28.882;2023-05-18T05:35:05;100818.06;;;25.77;39.91
71857;BME280;63344;46.980;28.882;2023-05-18T05:37:34;100826.22;;;26.05;37.07
71857;BME280;63344;46.980;28.882;2023-05-18T05:40:02;100814.22;;;25.98;36.58
71857;BME280;63344;46.980;28.882;2023-05-18T05:42:32;100813.03;;;25.82;37.24
71857;BME280;63344;46.980;28.882;2023-05-18T05:45:01;100824.19;;;25.61;36.75
71857;BME280;63344;46.980;28.882;2023-05-18T05:47:30;100818.28;;;25.11;36.89
71857;BME280;63344;46.980;28.882;2023-05-18T05:50:00;100823.44;;;24.57;37.04
71857;BME280;63344;46.980;28.882;2023-05-18T05:52:27;100824.88;;;24.02;37.75
71857;BME280;63344;46.980;28.882;2023-05-18T05:54:55;100821.19;;;23.63;38.90
71857;BME280;63344;46.980;28.882;2023-05-18T05:57:24;100818.13;;;23.37;39.31
71857;BME280;63344;46.980;28.882;2023-05-18T05:59:52;100825.16;;;23.09;39.34
71857;BME280;63344;46.980;28.882;2023-05-18T06:02:19;100822.00;;;22.61;40.07
71857;BME280;63344;46.980;28.882;2023-05-18T06:04:58;100821.13;;;22.19;40.93
71857;BME280;63344;46.980;28.882;2023-05-18T06:07:28;100828.56;;;21.94;40.80
71857;BME280;63344;46.980;28.882;2023-05-18T06:09:58;100828.38;;;21.75;41.58
71857;BME280;63344;46.980;28.882;2023-05-18T06:12:25;100820.94;;;21.56;41.34
71857;BME280;63344;46.980;28.882;2023-05-18T06:14:56;100831.75;;;21.44;42.17
71857;BME280;63344;46.980;28.882;2023-05-18T06:17:25;100841.78;;;21.42;42.97
71857;BME280;63344;46.980;28.882;2023-05-18T06:19:53;100831.75;;;21.44;42.23
71857;BME280;63344;46.980;28.882;2023-05-18T06:22:20;100834.94;;;21.50;42.44
71857;BME280;63344;46.980;28.882;2023-05-18T06:24:48;100833.22;;;21.48;42.59
71857;BME280;63344;46.980;28.882;2023-05-18T06:27:16;100823.13;;;21.51;42.61
71857;BME280;63344;46.980;28.882;2023-05-18T06:29:44;100830.50;;;21.60;42.39
71857;BME280;63344;46.980;28.882;2023-05-18T06:32:12;100825.72;;;21.63;42.50
71857;BME280;63344;46.980;28.882;2023-05-18T06:34:40;100825.91;;;21.83;42.47
71857;BME280;63344;46.980;28.882;2023-05-18T06:37:08;100825.91;;;21.83;42.44
71857;BME280;63344;46.980;28.882;2023-05-18T06:39:39;100824.69;;;21.76;42.98
71857;BME280;63344;46.980;28.882;2023-05-18T06:42:07;100826.06;;;21.70;43.12
71857;BME280;63344;46.980;28.882;2023-05-18T06:44:45;100824.31;;;21.80;43.81
71857;BME280;63344;46.980;28.882;2023-05-18T06:47:14;100827.09;;;21.90;43.55
71857;BME280;63344;46.980;28.882;2023-05-18T06:50:47;100814.69;;;21.99;41.72
71857;BME280;63344;46.980;28.882;2023-05-18T06:53:15;100819.47;;;21.95;42.31
71857;BME280;63344;46.980;28.882;2023-05-18T06:55:42;100817.13;;;21.91;42.65
71857;BME280;63344;46.980;28.882;2023-05-18T06:58:10;100815.16;;;21.93;42.21
71857;BME280;63344;46.980;28.882;2023-05-18T07:00:37;100813.47;;;21.92;41.72
71857;BME280;63344;46.980;28.882;2023-05-18T07:03:06;100815.94;;;21.95;42.51
71857;BME280;63344;46.980;28.882;2023-05-18T07:05:34;100812.31;;;22.05;42.84
71857;BME280;63344;46.980;28.882;2023-05-18T07:08:10;100814.50;;;22.12;41.01
71857;BME280;63344;46.980;28.882;2023-05-18T07:10:37;100828.41;;;22.07;42.15
71857;BME280;63344;46.980;28.882;2023-05-18T07:13:06;100823.53;;;22.01;42.33
71857;BME280;63344;46.980;28.882;2023-05-18T07:15:33;100824.09;;;22.04;42.36
71857;BME280;63344;46.980;28.882;2023-05-18T07:18:02;100820.03;;;22.10;41.82
71857;BME280;63344;46.980;28.882;2023-05-18T07:20:29;100815.81;;;22.17;41.57
71857;BME280;63344;46.980;28.882;2023-05-18T07:22:57;100813.00;;;22.19;41.52
71857;BME280;63344;46.980;28.882;2023-05-18T07:25:24;100815.22;;;22.25;41.25
71857;BME280;63344;46.980;28.882;2023-05-18T07:27:53;100812.09;;;22.30;40.67
71857;BME280;63344;46.980;28.882;2023-05-18T07:30:22;100812.78;;;22.43;41.27
71857;BME280;63344;46.980;28.882;2023-05-18T07:32:53;100811.97;;;22.52;41.66
71857;BME280;63344;46.980;28.882;2023-05-18T07:35:24;100817.19;;;22.65;40.49
71857;BME280;63344;46.980;28.882;2023-05-18T07:38:02;100811.72;;;22.55;39.06
71857;BME280;63344;46.980;28.882;2023-05-18T07:40:33;100810.00;;;22.54;39.46
71857;BME280;63344;46.980;28.882;2023-05-18T07:43:00;100808.72;;;22.58;39.36
71857;BME280;63344;46.980;28.882;2023-05-18T07:45:27;100809.19;;;22.63;39.92
71857;BME280;63344;46.980;28.882;2023-05-18T07:47:57;100811.31;;;22.81;39.90
71857;BME280;63344;46.980;28.882;2023-05-18T07:50:24;100809.63;;;22.90;39.29
71857;BME280;63344;46.980;28.882;2023-05-18T07:52:54;100804.81;;;22.93;39.66
71857;BME280;63344;46.980;28.882;2023-05-18T07:55:26;100798.97;;;22.98;39.45
71857;BME280;63344;46.980;28.882;2023-05-18T07:57:55;100815.19;;;23.09;39.82
71857;BME280;63344;46.980;28.882;2023-05-18T08:00:23;100805.97;;;23.00;38.79
71857;BME280;63344;46.980;28.882;2023-05-18T08:02:51;100799.94;;;22.87;39.47
71857;BME280;63344;46.980;28.882;2023-05-18T08:05:19;100798.84;;;22.99;39.27
71857;BME280;63344;46.980;28.882;2023-05-18T08:08:01;100804.88;;;23.03;38.68
71857;BME280;63344;46.980;28.882;2023-05-18T08:10:33;100804.88;;;23.03;39.20
71857;BME280;63344;46.980;28.882;2023-05-18T08:13:00;100790.47;;;23.02;39.36
71857;BME280;63344;46.980;28.882;2023-05-18T08:15:30;100799.22;;;23.16;37.75
71857;BME280;63344;46.980;28.882;2023-05-18T08:18:05;100790.75;;;23.40;36.78
71857;BME280;63344;46.980;28.882;2023-05-18T08:20:33;100795.66;;;23.75;36.51
71857;BME280;63344;46.980;28.882;2023-05-18T08:23:01;100803.00;;;24.23;35.15
71857;BME280;63344;46.980;28.882;2023-05-18T08:25:28;100790.53;;;24.60;33.68
71857;BME280;63344;46.980;28.882;2023-05-18T08:27:57;100787.91;;;25.25;32.13
71857;BME280;63344;46.980;28.882;2023-05-18T08:30:43;100789.28;;;25.57;31.64
71857;BME280;63344;46.980;28.882;2023-05-18T08:33:10;100782.19;;;25.92;30.95
71857;BME280;63344;46.980;28.882;2023-05-18T08:35:38;100788.97;;;25.78;29.78
71857;BME280;63344;46.980;28.882;2023-05-18T08:38:06;100797.72;;;26.17;29.76
71857;BME280;63344;46.980;28.882;2023-05-18T08:40:45;100790.53;;;26.52;29.47
71857;BME280;63344;46.980;28.882;2023-05-18T08:43:24;100796.63;;;25.74;30.54
71857;BME280;63344;46.980;28.882;2023-05-18T08:46:28;100805.16;;;25.34;30.73
71857;BME280;63344;46.980;28.882;2023-05-18T08:48:59;100798.59;;;25.36;30.45
71857;BME280;63344;46.980;28.882;2023-05-18T08:51:33;100806.75;;;25.36;30.55
71857;BME280;63344;46.980;28.882;2023-05-18T08:54:02;100802.13;;;24.99;30.96
71857;BME280;63344;46.980;28.882;2023-05-18T08:56:35;100793.00;;;25.56;31.05
71857;BME280;63344;46.980;28.882;2023-05-18T08:59:06;100799.56;;;25.63;30.27
71857;BME280;63344;46.980;28.882;2023-05-18T09:01:35;100791.78;;;25.86;29.83
71857;BME280;63344;46.980;28.882;2023-05-18T09:05:01;100793.34;;;25.25;30.42
71857;BME280;63344;46.980;28.882;2023-05-18T09:08:47;100805.00;;;24.60;31.53
71857;BME280;63344;46.980;28.882;2023-05-18T09:11:46;100796.84;;;24.51;31.95
71857;BME280;63344;46.980;28.882;2023-05-18T09:15:31;100774.81;;;25.38;29.95
71857;BME280;63344;46.980;28.882;2023-05-18T09:18:53;100787.69;;;24.99;30.50
71857;BME280;63344;46.980;28.882;2023-05-18T09:22:53;100783.97;;;24.62;30.79
71857;BME280;63344;46.980;28.882;2023-05-18T09:26:49;100773.84;;;25.20;30.29
71857;BME280;63344;46.980;28.882;2023-05-18T09:30:47;100773.75;;;25.21;30.28
71857;BME280;63344;46.980;28.882;2023-05-18T09:35:02;100779.25;;;25.57;30.97
71857;BME280;63344;46.980;28.882;2023-05-18T09:51:39;100763.47;;;25.43;30.80
71857;BME280;63344;46.980;28.882;2023-05-18T09:55:39;100748.31;;;27.17;28.50
71857;BME280;63344;46.980;28.882;2023-05-18T10:00:05;100765.41;;;28.44;26.03
71857;BME280;63344;46.980;28.882;2023-05-18T10:04:20;100762.25;;;28.88;25.96
71857;BME280;63344;46.980;28.882;2023-05-18T10:08:39;100761.88;;;27.00;27.69
71857;BME280;63344;46.980;28.882;2023-05-18T10:12:51;100756.81;;;27.56;27.57
71857;BME280;63344;46.980;28.882;2023-05-18T10:21:04;100735.34;;;29.16;24.40
71857;BME280;63344;46.980;28.882;2023-05-18T10:24:33;100735.00;;;29.73;24.38
71857;BME280;63344;46.980;28.882;2023-05-18T10:36:16;100750.28;;;29.36;23.20
71857;BME280;63344;46.980;28.882;2023-05-18T10:39:35;100736.94;;;30.11;22.53
71857;BME280;63344;46.980;28.882;2023-05-18T10:43:07;100748.31;;;28.66;24.47
71857;BME280;63344;46.980;28.882;2023-05-18T10:47:05;100739.50;;;27.98;25.91
71857;BME280;63344;46.980;28.882;2023-05-18T10:51:04;100732.78;;;28.67;23.80
71857;BME280;63344;46.980;28.882;2023-05-18T10:54:47;100738.25;;;30.00;22.35
71857;BME280;63344;46.980;28.882;2023-05-18T11:03:16;100733.50;;;29.39;23.15
71857;BME280;63344;46.980;28.882;2023-05-18T11:07:10;100735.78;;;29.59;23.98
71857;BME280;63344;46.980;28.882;2023-05-18T11:10:47;100718.03;;;29.24;22.85
71857;BME280;63344;46.980;28.882;2023-05-18T11:22:17;100725.50;;;26.83;25.90
71857;BME280;63344;46.980;28.882;2023-05-18T11:26:14;100723.41;;;26.51;25.67
71857;BME280;63344;46.980;28.882;2023-05-18T11:29:49;100731.00;;;26.13;26.55
71857;BME280;63344;46.980;28.882;2023-05-18T11:32:50;100725.31;;;26.25;26.68
71857;BME280;63344;46.980;28.882;2023-05-18T11:36:11;100728.63;;;26.62;26.79
71857;BME280;63344;46.980;28.882;2023-05-18T11:39:30;100723.97;;;26.81;26.25
71857;BME280;63344;46.980;28.882;2023-05-18T11:43:45;100718.81;;;26.78;26.07
71857;BME280;63344;46.980;28.882;2023-05-18T11:47:30;100714.50;;;27.01;26.87
71857;BME280;63344;46.980;28.882;2023-05-18T11:51:08;100725.06;;;26.96;27.39
71857;BME280;63344;46.980;28.882;2023-05-18T11:54:38;100722.34;;;26.96;27.56
71857;BME280;63344;46.980;28.882;2023-05-18T11:58:20;100722.25;;;27.22;26.45
71857;BME280;63344;46.980;28.882;2023-05-18T12:01:49;100726.97;;;27.63;25.71
71857;BME280;63344;46.980;28.882;2023-05-18T12:04:51;100737.69;;;27.06;26.77
71857;BME280;63344;46.980;28.882;2023-05-18T12:08:09;100725.34;;;26.85;27.06
71857;BME280;63344;46.980;28.882;2023-05-18T12:11:06;100737.41;;;27.17;27.31
71857;BME280;63344;46.980;28.882;2023-05-18T12:14:01;100731.06;;;27.84;26.50
71857;BME280;63344;46.980;28.882;2023-05-18T12:16:58;100735.03;;;27.89;26.82
71857;BME280;63344;46.980;28.882;2023-05-18T12:19:46;100730.94;;;28.10;26.85
71857;BME280;63344;46.980;28.882;2023-05-18T12:22:48;100718.78;;;27.79;26.96
71857;BME280;63344;46.980;28.882;2023-05-18T12:25:54;100723.72;;;27.76;27.38
71857;BME280;63344;46.980;28.882;2023-05-18T12:29:01;100725.91;;;27.48;27.17
71857;BME280;63344;46.980;28.882;2023-05-18T12:32:05;100728.06;;;26.85;27.94
71857;BME280;63344;46.980;28.882;2023-05-18T12:35:27;100723.81;;;26.30;28.51
71857;BME280;63344;46.980;28.882;2023-05-18T12:38:40;100730.03;;;25.96;29.15
71857;BME280;63344;46.980;28.882;2023-05-18T12:42:13;100738.31;;;25.77;29.63
71857;BME280;63344;46.980;28.882;2023-05-18T12:45:13;100723.53;;;25.61;30.04
71857;BME280;63344;46.980;28.882;2023-05-18T12:48:13;100728.50;;;25.84;29.92
71857;BME280;63344;46.980;28.882;2023-05-18T12:51:17;100723.97;;;26.29;29.64
71857;BME280;63344;46.980;28.882;2023-05-18T12:54:27;100720.13;;;26.66;28.61
71857;BME280;63344;46.980;28.882;2023-05-18T12:57:29;100721.69;;;26.68;28.30
71857;BME280;63344;46.980;28.882;2023-05-18T13:00:33;100725.56;;;26.39;28.88
71857;BME280;63344;46.980;28.882;2023-05-18T13:03:22;100725.59;;;26.21;29.23
71857;BME280;63344;46.980;28.882;2023-05-18T13:06:24;100726.56;;;26.12;29.13
71857;BME280;63344;46.980;28.882;2023-05-18T13:09:44;100726.69;;;26.29;29.37
71857;BME280;63344;46.980;28.882;2023-05-18T13:12:50;100726.94;;;26.43;29.55
71857;BME280;63344;46.980;28.882;2023-05-18T13:15:49;100723.91;;;26.20;29.26
71857;BME280;63344;46.980;28.882;2023-05-18T13:18:58;100726.06;;;25.91;29.58
71857;BME280;63344;46.980;28.882;2023-05-18T13:22:04;100733.56;;;25.61;29.76
71857;BME280;63344;46.980;28.882;2023-05-18T13:25:06;100732.78;;;25.51;30.32
71857;BME280;63344;46.980;28.882;2023-05-18T13:28:03;100725.63;;;25.50;30.11
71857;BME280;63344;46.980;28.882;2023-05-18T13:31:18;100724.84;;;25.39;30.47
71857;BME280;63344;46.980;28.882;2023-05-18T13:34:37;100727.25;;;25.42;30.42
71857;BME280;63344;46.980;28.882;2023-05-18T13:37:54;100724.72;;;25.59;30.60
71857;BME280;63344;46.980;28.882;2023-05-18T13:41:12;100715.28;;;25.71;30.33
71857;BME280;63344;46.980;28.882;2023-05-18T13:44:48;100713.69;;;25.60;30.46
71857;BME280;63344;46.980;28.882;2023-05-18T13:48:20;100723.59;;;25.52;30.78
71857;BME280;63344;46.980;28.882;2023-05-18T13:51:43;100718.41;;;25.40;30.45
71857;BME280;63344;46.980;28.882;2023-05-18T13:55:14;100713.16;;;25.29;30.74
71857;BME280;63344;46.980;28.882;2023-05-18T13:58:39;100725.66;;;25.22;31.27
71857;BME280;63344;46.980;28.882;2023-05-18T14:01:44;100726.34;;;25.24;31.39
71857;BME280;63344;46.980;28.882;2023-05-18T14:04:43;100720.06;;;25.23;31.46
71857;BME280;63344;46.980;28.882;2023-05-18T14:07:33;100709.91;;;25.16;31.38
71857;BME280;63344;46.980;28.882;2023-05-18T14:10:19;100706.41;;;25.05;31.07
71857;BME280;63344;46.980;28.882;2023-05-18T14:13:15;100712.03;;;24.94;31.19
71857;BME280;63344;46.980;28.882;2023-05-18T14:16:11;100713.25;;;25.10;31.38
71857;BME280;63344;46.980;28.882;2023-05-18T14:19:59;100712.34;;;25.47;31.17
71857;BME280;63344;46.980;28.882;2023-05-18T14:23:18;100704.88;;;25.67;30.10
71857;BME280;63344;46.980;28.882;2023-05-18T14:27:51;100708.66;;;26.10;30.27
71857;BME280;63344;46.980;28.882;2023-05-18T14:31:09;100701.19;;;26.38;29.43
71857;BME280;63344;46.980;28.882;2023-05-18T14:34:27;100707.03;;;26.43;28.53
71857;BME280;63344;46.980;28.882;2023-05-18T14:37:26;100705.16;;;26.17;28.17
71857;BME280;63344;46.980;28.882;2023-05-18T14:40:10;100700.97;;;26.05;28.52
71857;BME280;63344;46.980;28.882;2023-05-18T14:43:18;100705.88;;;25.83;29.19
71857;BME280;63344;46.980;28.882;2023-05-18T14:46:29;100701.38;;;25.74;28.96
71857;BME280;63344;46.980;28.882;2023-05-18T14:49:29;100703.72;;;25.69;29.30
71857;BME280;63344;46.980;28.882;2023-05-18T14:52:28;100706.28;;;25.53;29.34
71857;BME280;63344;46.980;28.882;2023-05-18T14:55:26;100706.41;;;25.33;29.87
71857;BME280;63344;46.980;28.882;2023-05-18T14:58:24;100692.19;;;25.21;29.97
71857;BME280;63344;46.980;28.882;2023-05-18T15:01:23;100707.06;;;25.17;29.85
71857;BME280;63344;46.980;28.882;2023-05-18T15:04:11;100698.34;;;25.14;30.46
71857;BME280;63344;46.980;28.882;2023-05-18T15:07:04;100697.03;;;25.18;30.14
71857;BME280;63344;46.980;28.882;2023-05-18T15:10:27;100697.03;;;25.18;29.98
71857;BME280;63344;46.980;28.882;2023-05-18T15:13:56;100694.16;;;25.19;29.93
71857;BME280;63344;46.980;28.882;2023-05-18T15:17:37;100694.94;;;25.12;30.25
71857;BME280;63344;46.980;28.882;2023-05-18T15:20:33;100688.78;;;25.10;30.25
71857;BME280;63344;46.980;28.882;2023-05-18T15:23:31;100692.69;;;25.07;30.31